Time;durP1;ratioP1;P1;durP2;ratioP2;P2;SDS_P1;SDS_P2;PMS_P1;PMS_P2;Temp;Humidity;BMP_temperature;BMP_pressure;BME280_temperature;BME280_humidity;BME280_pressure;Samples;Min_cycle;Max_cycle;Signal;HPM_P1;HPM_P2
2023/01/23 00:01:06;;;;;;;8.73;5.13;;;;;;;;;;5047108;28;20037;-49
2023/01/23 00:03:33;;;;;;;7.65;4.90;;;;;;;;;;5051049;28;20021;-46
2023/01/23 00:05:59;;;;;;;6.05;4.53;;;;;;;;;;5065659;28;20032;-47
2023/01/23 00:08:26;;;;;;;8.57;5.07;;;;;;;;;;5057477;28;20079;-48
2023/01/23 00:10:52;;;;;;;8.25;5.10;;;;;;;;;;5045204;28;20407;-51
2023/01/23 00:13:19;;;;;;;7.07;5.35;;;;;;;;;;5045007;28;20025;-46
2023/01/23 00:15:45;;;;;;;7.03;4.72;;;;;;;;;;5045212;28;20079;-47
2023/01/23 00:18:11;;;;;;;6.25;4.78;;;;;;;;;;5057258;28;20017;-51
2023/01/23 00:20:37;;;;;;;7.05;5.05;;;;;;;;;;5063187;28;20037;-47
2023/01/23 00:23:03;;;;;;;8.00;5.60;;;;;;;;;;5063921;28;20078;-48
2023/01/23 00:25:30;;;;;;;8.45;5.22;;;;;;;;;;5063981;28;20037;-47
2023/01/23 00:27:56;;;;;;;7.25;4.80;;;;;;;;;;5064849;28;20442;-48
2023/01/23 00:30:22;;;;;;;7.50;5.60;;;;;;;;;;5064566;28;20033;-46
2023/01/23 00:32:48;;;;;;;9.13;5.65;;;;;;;;;;5064789;28;20057;-48
2023/01/23 00:35:15;;;;;;;7.40;5.43;;;;;;;;;;5062582;28;20040;-47
2023/01/23 00:37:42;;;;;;;7.78;5.05;;;;;;;;;;5065391;28;20419;-48
2023/01/23 00:40:09;;;;;;;7.78;5.07;;;;;;;;;;5064962;28;20036;-48
2023/01/23 00:42:35;;;;;;;7.63;5.18;;;;;;;;;;5064725;28;20570;-46
2023/01/23 00:45:01;;;;;;;9.50;5.47;;;;;;;;;;5064527;28;20107;-48
2023/01/23 00:47:27;;;;;;;9.05;5.72;;;;;;;;;;5064157;28;20024;-50
2023/01/23 00:49:56;;;;;;;7.35;5.22;;;;;;;;;;5063759;28;20040;-48
2023/01/23 00:52:22;;;;;;;8.40;5.53;;;;;;;;;;5064441;28;20021;-48
2023/01/23 00:54:48;;;;;;;9.00;5.55;;;;;;;;;;5064361;28;20035;-47
2023/01/23 00:57:14;;;;;;;8.75;5.68;;;;;;;;;;5064475;28;20028;-48
2023/01/23 00:59:40;;;;;;;7.88;5.28;;;;;;;;;;5064620;28;20496;-49
2023/01/23 01:02:06;;;;;;;8.15;5.40;;;;;;;;;;5065529;28;20024;-48
2023/01/23 01:04:33;;;;;;;7.97;5.28;;;;;;;;;;5068580;28;20032;-49
2023/01/23 06:12:26;;;;;;;7.68;5.28;;;;;;;;;;5048573;28;20033;-44
2023/01/23 06:14:52;;;;;;;8.25;5.50;;;;;;;;;;5050364;28;20060;-45
2023/01/23 06:17:18;;;;;;;7.35;5.35;;;;;;;;;;5050658;28;20615;-47
2023/01/23 06:19:44;;;;;;;6.72;4.80;;;;;;;;;;5050584;28;20028;-45
2023/01/23 06:22:10;;;;;;;7.28;5.28;;;;;;;;;;5050125;28;20017;-45
2023/01/23 06:24:36;;;;;;;8.77;5.85;;;;;;;;;;5050726;28;20033;-46
2023/01/23 06:27:07;;;;;;;8.60;5.05;;;;;;;;;;5050520;28;20495;-44
2023/01/23 06:29:33;;;;;;;7.15;5.32;;;;;;;;;;5050595;28;20028;-46
2023/01/23 06:31:59;;;;;;;7.75;5.03;;;;;;;;;;5050519;28;20025;-46
2023/01/23 06:34:25;;;;;;;8.23;5.20;;;;;;;;;;5061309;28;20029;-44
2023/01/23 06:36:51;;;;;;;6.28;4.72;;;;;;;;;;5050932;28;20668;-45
2023/01/23 06:39:17;;;;;;;6.97;4.90;;;;;;;;;;5050799;28;20823;-44
2023/01/23 06:41:43;;;;;;;5.43;4.20;;;;;;;;;;5050236;28;20087;-45
2023/01/23 06:44:09;;;;;;;6.97;4.50;;;;;;;;;;5050220;28;20537;-44
2023/01/23 06:46:35;;;;;;;5.55;4.45;;;;;;;;;;5050354;28;20027;-48
2023/01/23 06:49:02;;;;;;;8.95;5.32;;;;;;;;;;5051210;28;20040;-45
2023/01/23 06:51:28;;;;;;;8.45;5.68;;;;;;;;;;5060445;28;20033;-45
2023/01/23 06:53:55;;;;;;;7.32;5.13;;;;;;;;;;5050098;28;20025;-45
2023/01/23 06:56:21;;;;;;;6.95;5.22;;;;;;;;;;5049056;28;20087;-46
2023/01/23 06:58:47;;;;;;;7.68;5.07;;;;;;;;;;5050122;28;20118;-45
2023/01/23 07:01:15;;;;;;;7.60;5.15;;;;;;;;;;5049625;28;20057;-46
2023/01/23 07:03:41;;;;;;;8.50;5.60;;;;;;;;;;5058693;28;20036;-45
2023/01/23 07:06:08;;;;;;;7.18;5.40;;;;;;;;;;5070368;28;20029;-47
2023/01/23 07:08:34;;;;;;;8.25;5.45;;;;;;;;;;5054046;28;20033;-44
2023/01/23 07:11:00;;;;;;;7.45;5.60;;;;;;;;;;5049973;28;20060;-45
2023/01/23 07:13:27;;;;;;;7.95;5.25;;;;;;;;;;5049777;28;20037;-46
2023/01/23 07:15:53;;;;;;;8.00;5.40;;;;;;;;;;5059953;28;20503;-46
2023/01/23 07:18:19;;;;;;;8.90;5.50;;;;;;;;;;5050756;28;20554;-45
2023/01/23 07:20:45;;;;;;;8.00;5.25;;;;;;;;;;5055706;28;20036;-44
2023/01/23 07:23:11;;;;;;;9.20;6.20;;;;;;;;;;5059512;28;20058;-46
2023/01/23 07:25:38;;;;;;;8.18;5.63;;;;;;;;;;5049770;28;20033;-46
2023/01/23 07:28:04;;;;;;;9.68;5.88;;;;;;;;;;5049351;28;20040;-45
2023/01/23 07:30:30;;;;;;;8.35;5.20;;;;;;;;;;5049513;28;20118;-46
2023/01/23 07:32:59;;;;;;;7.00;4.88;;;;;;;;;;5048936;28;20106;-44
2023/01/23 07:35:25;;;;;;;8.25;5.75;;;;;;;;;;5048356;28;20078;-44
2023/01/23 07:37:52;;;;;;;6.82;4.90;;;;;;;;;;5049594;28;20056;-44
2023/01/23 07:40:18;;;;;;;8.18;5.25;;;;;;;;;;5049888;28;20021;-45
2023/01/23 07:42:45;;;;;;;8.63;5.88;;;;;;;;;;5046630;28;21619;-46
2023/01/23 07:45:11;;;;;;;7.70;5.03;;;;;;;;;;5049911;28;20027;-45
2023/01/23 07:47:40;;;;;;;10.30;6.05;;;;;;;;;;5048471;28;20036;-44
2023/01/23 07:50:07;;;;;;;10.40;6.07;;;;;;;;;;5050235;28;20021;-45
2023/01/23 07:52:34;;;;;;;9.20;6.10;;;;;;;;;;5048181;28;20029;-45
2023/01/23 07:55:00;;;;;;;10.10;6.13;;;;;;;;;;5048867;28;20527;-45
2023/01/23 07:57:26;;;;;;;8.68;5.57;;;;;;;;;;5050149;28;20021;-46
2023/01/23 07:59:52;;;;;;;10.75;6.05;;;;;;;;;;5048969;28;20051;-45
2023/01/23 08:02:18;;;;;;;8.43;5.55;;;;;;;;;;5050367;28;20148;-45
2023/01/23 08:04:44;;;;;;;8.65;5.55;;;;;;;;;;5063753;28;20024;-48
2023/01/23 08:07:10;;;;;;;7.88;5.22;;;;;;;;;;5050115;28;20021;-45
2023/01/23 08:09:36;;;;;;;8.05;4.63;;;;;;;;;;5049658;28;20526;-45
2023/01/23 08:12:02;;;;;;;8.50;5.65;;;;;;;;;;5044774;28;20504;-45
2023/01/23 08:14:28;;;;;;;8.73;5.70;;;;;;;;;;5048656;28;20118;-46
2023/01/23 08:16:54;;;;;;;9.45;6.32;;;;;;;;;;5047299;28;20024;-46
2023/01/23 08:19:20;;;;;;;7.82;5.45;;;;;;;;;;5050641;28;20029;-44
2023/01/23 08:21:46;;;;;;;7.05;5.00;;;;;;;;;;5045500;28;20029;-44
2023/01/23 08:24:13;;;;;;;9.07;5.65;;;;;;;;;;5046769;28;20029;-48
2023/01/23 08:26:39;;;;;;;7.65;4.85;;;;;;;;;;5063699;28;20040;-45
2023/01/23 08:29:05;;;;;;;7.75;5.20;;;;;;;;;;5067925;28;20024;-45
2023/01/23 08:31:31;;;;;;;7.55;5.13;;;;;;;;;;5067709;28;20032;-45
2023/01/23 08:33:57;;;;;;;6.63;4.88;;;;;;;;;;5068433;28;20025;-45
2023/01/23 08:36:23;;;;;;;9.93;5.85;;;;;;;;;;5065735;28;20380;-45
2023/01/23 08:38:49;;;;;;;9.48;5.20;;;;;;;;;;5067688;28;20020;-47
2023/01/23 08:41:16;;;;;;;7.38;4.60;;;;;;;;;;5067721;28;20509;-45
2023/01/23 08:43:43;;;;;;;8.60;5.22;;;;;;;;;;5047725;28;20025;-46
2023/01/23 08:46:10;;;;;;;7.40;4.88;;;;;;;;;;5047620;28;20056;-45
2023/01/23 08:48:36;;;;;;;8.82;5.75;;;;;;;;;;5047483;28;20029;-45
2023/01/23 08:51:04;;;;;;;7.20;4.97;;;;;;;;;;5052586;28;20043;-44
2023/01/23 08:53:31;;;;;;;7.68;5.22;;;;;;;;;;5059444;28;20101;-45
2023/01/23 08:56:00;;;;;;;7.43;4.88;;;;;;;;;;5047324;28;20036;-46
2023/01/23 08:58:26;;;;;;;7.75;5.15;;;;;;;;;;5049402;28;20035;-47
2023/01/23 09:00:53;;;;;;;6.07;4.40;;;;;;;;;;5059544;28;20029;-47
2023/01/23 09:03:19;;;;;;;5.22;4.38;;;;;;;;;;5046225;28;20025;-44
2023/01/23 09:05:45;;;;;;;5.15;3.65;;;;;;;;;;5047212;28;20036;-48
2023/01/23 09:08:11;;;;;;;5.95;4.70;;;;;;;;;;5047269;28;20029;-48
2023/01/23 09:10:37;;;;;;;6.40;4.40;;;;;;;;;;5054250;28;20028;-44
2023/01/23 09:13:04;;;;;;;5.57;3.80;;;;;;;;;;5067202;28;20043;-47
2023/01/23 09:15:30;;;;;;;5.97;3.83;;;;;;;;;;5067283;28;20059;-46
2023/01/23 09:17:56;;;;;;;4.78;3.60;;;;;;;;;;5067819;28;20020;-47
2023/01/23 09:20:24;;;;;;;5.30;4.00;;;;;;;;;;5067142;28;20476;-45
2023/01/23 09:22:50;;;;;;;5.78;4.20;;;;;;;;;;5068359;28;20024;-45
2023/01/23 09:25:17;;;;;;;6.75;4.32;;;;;;;;;;5070960;28;20436;-47
2023/01/23 09:27:43;;;;;;;5.53;4.10;;;;;;;;;;5071053;28;20024;-45
2023/01/23 09:30:09;;;;;;;7.38;4.95;;;;;;;;;;5070978;28;20483;-45
2023/01/23 09:32:35;;;;;;;6.13;4.85;;;;;;;;;;5071154;28;20029;-46
2023/01/23 09:35:01;;;;;;;7.18;5.07;;;;;;;;;;5063446;28;20021;-48
2023/01/23 09:37:58;;;;;;;7.28;4.95;;;;;;;;;;5069240;28;20039;-45
2023/01/23 09:40:16;;;;;;;6.40;4.78;;;;;;;;;;5070720;28;20071;-46
2023/01/23 09:42:42;;;;;;;6.72;4.32;;;;;;;;;;5059070;28;20484;-45
2023/01/23 09:45:11;;;;;;;6.65;4.78;;;;;;;;;;5051030;28;20036;-45
2023/01/23 09:47:44;;;;;;;7.72;5.70;;;;;;;;;;5070158;28;20066;-46
2023/01/23 09:50:19;;;;;;;8.02;5.22;;;;;;;;;;5070479;28;20021;-48
2023/01/23 09:52:48;;;;;;;6.65;4.82;;;;;;;;;;5050592;28;20052;-47
2023/01/23 09:55:22;;;;;;;8.10;5.05;;;;;;;;;;5049262;28;20151;-44
2023/01/23 09:57:56;;;;;;;7.53;5.15;;;;;;;;;;5050234;28;20029;-45
2023/01/23 10:00:24;;;;;;;6.72;4.95;;;;;;;;;;5057493;28;20013;-46
2023/01/23 10:02:52;;;;;;;7.38;4.40;;;;;;;;;;5070518;28;20081;-44
2023/01/23 10:05:20;;;;;;;7.57;4.43;;;;;;;;;;5070514;28;20043;-45
2023/01/23 10:08:12;;;;;;;7.38;4.90;;;;;;;;;;5070340;28;20024;-45
2023/01/23 10:11:10;;;;;;;5.55;4.07;;;;;;;;;;5063676;28;20036;-45
2023/01/23 10:13:51;;;;;;;5.95;4.30;;;;;;;;;;5008433;28;20044;-48
2023/01/23 10:16:29;;;;;;;8.23;4.43;;;;;;;;;;5051075;28;20043;-47
2023/01/23 10:19:04;;;;;;;6.43;4.25;;;;;;;;;;5039860;28;20036;-45
2023/01/23 10:21:30;;;;;;;5.88;4.03;;;;;;;;;;5052370;28;20031;-44
2023/01/23 10:24:15;;;;;;;4.88;3.63;;;;;;;;;;5054756;28;20634;-45
2023/01/23 10:26:43;;;;;;;6.00;4.18;;;;;;;;;;5050573;28;20029;-45
2023/01/23 10:29:24;;;;;;;5.28;4.10;;;;;;;;;;5050113;28;20514;-46
2023/01/23 10:31:53;;;;;;;6.03;4.13;;;;;;;;;;5048499;28;20033;-45
2023/01/23 10:34:19;;;;;;;5.65;3.90;;;;;;;;;;5052204;28;20027;-45
2023/01/23 10:36:48;;;;;;;5.38;3.80;;;;;;;;;;5047572;28;20402;-45
2023/01/23 10:39:24;;;;;;;6.10;4.15;;;;;;;;;;5048771;28;20052;-46
2023/01/23 10:41:51;;;;;;;5.25;4.07;;;;;;;;;;5047848;28;20033;-45
2023/01/23 10:44:19;;;;;;;6.25;4.43;;;;;;;;;;5042131;28;20527;-45
2023/01/23 10:46:48;;;;;;;5.97;3.95;;;;;;;;;;5048786;28;20021;-45
2023/01/23 10:49:26;;;;;;;5.97;4.13;;;;;;;;;;5049659;28;20029;-48
2023/01/23 10:51:52;;;;;;;5.15;3.90;;;;;;;;;;5049486;28;20036;-45
2023/01/23 10:54:19;;;;;;;6.70;4.53;;;;;;;;;;5049662;28;20108;-45
2023/01/23 10:56:47;;;;;;;4.57;3.70;;;;;;;;;;5047800;28;20029;-45
2023/01/23 10:59:29;;;;;;;4.53;3.42;;;;;;;;;;5049482;28;20028;-45
2023/01/23 11:02:02;;;;;;;5.15;3.72;;;;;;;;;;5049279;28;20115;-46
2023/01/23 11:04:30;;;;;;;4.75;3.58;;;;;;;;;;5049460;28;20040;-45
2023/01/23 11:07:16;;;;;;;4.78;3.47;;;;;;;;;;5049324;28;20646;-47
2023/01/23 11:10:03;;;;;;;4.72;3.65;;;;;;;;;;5049937;28;20079;-46
2023/01/23 11:12:31;;;;;;;4.00;3.05;;;;;;;;;;5047561;28;20467;-46
2023/01/23 11:15:15;;;;;;;4.10;3.25;;;;;;;;;;5048827;28;20079;-45
2023/01/23 11:17:42;;;;;;;5.05;3.55;;;;;;;;;;5049721;28;20032;-48
2023/01/23 11:20:21;;;;;;;4.93;3.60;;;;;;;;;;5056362;28;20480;-46
2023/01/23 11:22:58;;;;;;;5.35;3.30;;;;;;;;;;5068968;28;20086;-45
2023/01/23 11:25:31;;;;;;;4.63;3.50;;;;;;;;;;5062467;28;20539;-49
2023/01/23 11:27:59;;;;;;;5.65;3.88;;;;;;;;;;5055396;28;20032;-49
2023/01/23 11:30:31;;;;;;;4.63;3.83;;;;;;;;;;5067516;28;20035;-49
2023/01/23 11:33:13;;;;;;;4.72;3.38;;;;;;;;;;5067774;28;20048;-49
2023/01/23 11:35:58;;;;;;;4.30;3.40;;;;;;;;;;5058164;28;20029;-45
2023/01/23 11:38:25;;;;;;;5.35;3.70;;;;;;;;;;5047484;28;20037;-47
2023/01/23 11:40:52;;;;;;;4.57;3.50;;;;;;;;;;5047007;28;20607;-48
2023/01/23 11:43:19;;;;;;;4.97;3.60;;;;;;;;;;5046088;28;20060;-46
2023/01/23 11:45:47;;;;;;;4.93;3.40;;;;;;;;;;5045297;28;20033;-46
2023/01/23 11:48:23;;;;;;;4.80;3.10;;;;;;;;;;5045814;28;20060;-47
2023/01/23 11:50:50;;;;;;;5.05;3.38;;;;;;;;;;5056948;28;20033;-47
2023/01/23 11:53:23;;;;;;;5.25;3.65;;;;;;;;;;5045994;28;20032;-45
2023/01/23 11:55:55;;;;;;;4.82;3.20;;;;;;;;;;5045541;28;20136;-46
2023/01/23 11:58:30;;;;;;;5.53;3.50;;;;;;;;;;5045154;28;20025;-48
2023/01/23 12:01:05;;;;;;;4.68;3.22;;;;;;;;;;5045681;28;20035;-45
2023/01/23 12:03:44;;;;;;;3.97;3.10;;;;;;;;;;5045611;28;20095;-46
2023/01/23 12:06:24;;;;;;;5.68;3.65;;;;;;;;;;5046054;28;20515;-45
2023/01/23 12:09:00;;;;;;;4.40;3.05;;;;;;;;;;5045227;28;20121;-45
2023/01/23 12:11:31;;;;;;;4.47;3.28;;;;;;;;;;5045718;28;20033;-46
2023/01/23 12:14:20;;;;;;;4.43;2.95;;;;;;;;;;5052343;28;20025;-48
2023/01/23 12:16:58;;;;;;;5.43;3.53;;;;;;;;;;5051447;28;20025;-46
2023/01/23 12:19:33;;;;;;;5.18;3.60;;;;;;;;;;5049959;28;20032;-46
2023/01/23 12:22:04;;;;;;;6.78;4.53;;;;;;;;;;5053618;28;20033;-46
2023/01/23 12:24:33;;;;;;;9.35;5.22;;;;;;;;;;5046278;28;20504;-45
2023/01/23 12:27:19;;;;;;;9.13;5.30;;;;;;;;;;5046054;28;20021;-46
2023/01/23 12:29:45;;;;;;;10.85;5.93;;;;;;;;;;5042462;28;20052;-45
2023/01/23 12:32:38;;;;;;;9.57;5.43;;;;;;;;;;5046781;28;20503;-45
2023/01/23 12:35:04;;;;;;;8.02;4.60;;;;;;;;;;5041773;28;20037;-45
2023/01/23 12:37:30;;;;;;;7.47;4.47;;;;;;;;;;5045908;28;20028;-48
2023/01/23 12:40:08;;;;;;;6.95;4.40;;;;;;;;;;5046413;28;20052;-49
2023/01/23 12:42:50;;;;;;;6.97;4.40;;;;;;;;;;5046113;28;20619;-48
2023/01/23 12:45:24;;;;;;;5.78;4.18;;;;;;;;;;5047147;28;20040;-45
2023/01/23 12:47:50;;;;;;;6.18;4.05;;;;;;;;;;5046807;28;20051;-46
2023/01/23 12:50:20;;;;;;;5.03;3.58;;;;;;;;;;5056030;28;20491;-48
2023/01/23 12:52:50;;;;;;;6.65;3.95;;;;;;;;;;5043819;28;20394;-49
2023/01/23 12:55:25;;;;;;;5.80;3.90;;;;;;;;;;5046486;28;20025;-47
2023/01/23 12:57:56;;;;;;;5.13;3.60;;;;;;;;;;5046119;28;20403;-51
2023/01/23 13:00:47;;;;;;;5.00;3.30;;;;;;;;;;5058537;28;20383;-50
2023/01/23 13:03:16;;;;;;;4.82;3.70;;;;;;;;;;5064973;28;20111;-49
2023/01/23 13:06:01;;;;;;;5.03;3.22;;;;;;;;;;5066653;28;20035;-49
2023/01/23 13:08:27;;;;;;;4.85;3.78;;;;;;;;;;5066562;28;20017;-50
2023/01/23 13:13:58;;;;;;;;;;;;;;;;;;5042333;28;20094;-49
2023/01/23 13:16:30;;;;;;;6.90;4.22;;;;;;;;;;5047102;28;19908;-46
2023/01/23 13:22:12;;;;;;;7.53;4.70;;;;;;;;;;5051526;28;20034;-47
2023/01/23 13:25:11;;;;;;;5.63;4.28;;;;;;;;;;5043768;28;20067;-49
2023/01/23 13:27:46;;;;;;;5.63;3.90;;;;;;;;;;5029401;28;20025;-47
2023/01/23 13:30:35;;;;;;;5.10;3.75;;;;;;;;;;5034027;28;20025;-48
2023/01/23 13:33:02;;;;;;;5.55;3.83;;;;;;;;;;5039176;28;20053;-47
2023/01/23 13:35:43;;;;;;;4.68;3.63;;;;;;;;;;5046369;28;20021;-50
2023/01/23 13:38:21;;;;;;;5.82;3.90;;;;;;;;;;5046232;28;20424;-47
2023/01/23 13:41:13;;;;;;;6.40;4.30;;;;;;;;;;5045867;28;20025;-49
2023/01/23 13:44:03;;;;;;;5.85;3.90;;;;;;;;;;5046468;28;20395;-47
2023/01/23 13:46:29;;;;;;;5.60;3.45;;;;;;;;;;5046654;28;20028;-49
2023/01/23 13:51:50;;;;;;;4.63;2.95;;;;;;;;;;5038490;28;20045;-47
2023/01/23 13:57:06;;;;;;;3.92;3.08;;;;;;;;;;5046265;28;20116;-48
2023/01/23 13:59:35;;;;;;;3.95;2.90;;;;;;;;;;5054383;28;20052;-52
2023/01/23 14:05:22;;;;;;;4.30;2.72;;;;;;;;;;5024823;28;20476;-48
2023/01/23 14:07:49;;;;;;;3.70;2.90;;;;;;;;;;5039962;28;20610;-48
2023/01/23 14:10:18;;;;;;;4.32;3.05;;;;;;;;;;5047412;28;20140;-47
2023/01/23 14:12:45;;;;;;;4.35;3.25;;;;;;;;;;5059435;28;20422;-48
2023/01/23 14:18:03;;;;;;;4.70;3.60;;;;;;;;;;5068116;28;20753;-48
2023/01/23 14:20:32;;;;;;;5.07;3.55;;;;;;;;;;5067911;28;20059;-47
2023/01/23 14:22:58;;;;;;;4.80;3.42;;;;;;;;;;5067832;28;20048;-49
2023/01/23 14:25:24;;;;;;;4.25;3.35;;;;;;;;;;5067968;28;20556;-47
2023/01/23 14:28:01;;;;;;;3.28;2.80;;;;;;;;;;5060432;28;20582;-49
2023/01/23 14:30:29;;;;;;;4.90;3.28;;;;;;;;;;5057183;28;20024;-48
2023/01/23 14:32:57;;;;;;;4.00;3.10;;;;;;;;;;5048532;28;20025;-51
2023/01/23 14:35:25;;;;;;;3.10;2.60;;;;;;;;;;5041511;28;20116;-52
2023/01/23 14:37:51;;;;;;;4.20;3.25;;;;;;;;;;5048171;28;20040;-49
2023/01/23 14:40:19;;;;;;;3.92;2.97;;;;;;;;;;5046935;28;20428;-51
2023/01/23 14:42:46;;;;;;;4.47;3.05;;;;;;;;;;5048138;28;20103;-50
2023/01/23 14:45:13;;;;;;;4.70;2.97;;;;;;;;;;5048720;28;20033;-50
2023/01/23 14:47:46;;;;;;;4.70;3.28;;;;;;;;;;5048716;28;20037;-48
2023/01/23 14:50:21;;;;;;;3.90;2.83;;;;;;;;;;5047471;28;20082;-50
2023/01/23 14:52:56;;;;;;;3.95;2.63;;;;;;;;;;5036307;28;20111;-49
2023/01/23 14:55:23;;;;;;;3.45;2.55;;;;;;;;;;5047910;28;20032;-52
2023/01/23 14:57:50;;;;;;;3.45;2.60;;;;;;;;;;5047176;28;20021;-50
2023/01/23 15:00:18;;;;;;;4.07;2.83;;;;;;;;;;5047229;28;20526;-48
2023/01/23 15:02:49;;;;;;;4.90;3.03;;;;;;;;;;5046996;28;20064;-47
2023/01/23 15:05:15;;;;;;;5.53;2.95;;;;;;;;;;5047245;28;20455;-48
2023/01/23 15:07:43;;;;;;;3.97;2.78;;;;;;;;;;5046866;28;20039;-49
2023/01/23 15:10:13;;;;;;;3.72;2.67;;;;;;;;;;5047141;28;20029;-50
2023/01/23 15:12:39;;;;;;;4.35;3.05;;;;;;;;;;5040826;28;20118;-51
2023/01/23 15:15:06;;;;;;;4.15;2.95;;;;;;;;;;5029739;28;20079;-49
2023/01/23 15:17:32;;;;;;;4.85;2.80;;;;;;;;;;5046704;28;20021;-47
2023/01/23 15:19:58;;;;;;;4.43;3.05;;;;;;;;;;5046348;28;20028;-48
2023/01/23 15:22:28;;;;;;;5.18;2.90;;;;;;;;;;5046802;28;20051;-47
2023/01/23 15:24:56;;;;;;;4.18;2.92;;;;;;;;;;5047222;28;20033;-52
2023/01/23 15:27:32;;;;;;;5.07;3.10;;;;;;;;;;5047284;28;20111;-47
2023/01/23 15:30:18;;;;;;;4.78;2.90;;;;;;;;;;5046657;28;20036;-47
2023/01/23 15:32:44;;;;;;;5.43;3.50;;;;;;;;;;5042787;28;20040;-48
2023/01/23 15:35:16;;;;;;;4.50;3.00;;;;;;;;;;5047416;28;20043;-48
2023/01/23 15:37:46;;;;;;;5.50;3.35;;;;;;;;;;5046952;28;20473;-50
2023/01/23 15:40:17;;;;;;;6.85;3.60;;;;;;;;;;5047194;28;20392;-47
2023/01/23 15:42:43;;;;;;;7.63;4.38;;;;;;;;;;5047508;28;20095;-49
2023/01/23 15:45:13;;;;;;;8.43;4.47;;;;;;;;;;5046834;28;20029;-47
2023/01/23 15:47:39;;;;;;;7.47;4.47;;;;;;;;;;5046879;28;20044;-49
2023/01/23 15:50:05;;;;;;;7.75;4.65;;;;;;;;;;5048690;28;20063;-47
2023/01/23 15:52:44;;;;;;;7.78;3.92;;;;;;;;;;5048305;28;20025;-49
2023/01/23 15:55:11;;;;;;;7.15;3.80;;;;;;;;;;5048608;28;20400;-52
2023/01/23 15:57:37;;;;;;;8.63;4.55;;;;;;;;;;5051275;28;20070;-50
2023/01/23 16:00:26;;;;;;;5.60;3.50;;;;;;;;;;5046022;28;20120;-48
2023/01/23 16:02:53;;;;;;;5.20;3.47;;;;;;;;;;5045427;28;20060;-50
2023/01/23 16:05:21;;;;;;;5.63;3.53;;;;;;;;;;5047088;28;20021;-48
2023/01/23 16:07:47;;;;;;;5.55;3.58;;;;;;;;;;5045326;28;20036;-48
2023/01/23 16:10:21;;;;;;;6.70;4.20;;;;;;;;;;5048457;28;20025;-48
2023/01/23 16:12:48;;;;;;;7.95;4.35;;;;;;;;;;5045967;28;20033;-47
2023/01/23 16:15:16;;;;;;;7.53;4.20;;;;;;;;;;5046027;28;20419;-50
2023/01/23 16:17:42;;;;;;;7.78;4.43;;;;;;;;;;5045808;28;20051;-47
2023/01/23 16:20:13;;;;;;;6.28;4.18;;;;;;;;;;5044682;28;20049;-49
2023/01/23 16:22:40;;;;;;;6.32;3.95;;;;;;;;;;5047463;28;20033;-50
2023/01/23 16:25:06;;;;;;;7.40;4.22;;;;;;;;;;5044672;28;20123;-51
2023/01/23 16:27:32;;;;;;;7.15;4.57;;;;;;;;;;5046406;28;20098;-48
2023/01/23 16:29:58;;;;;;;8.60;4.28;;;;;;;;;;5045061;28;20446;-52
2023/01/23 16:32:24;;;;;;;7.88;4.63;;;;;;;;;;5048143;28;20033;-47
2023/01/23 16:34:51;;;;;;;9.70;4.78;;;;;;;;;;5047279;28;20032;-47
2023/01/23 16:37:18;;;;;;;10.65;5.05;;;;;;;;;;5045795;28;20029;-48
2023/01/23 16:39:45;;;;;;;7.35;3.97;;;;;;;;;;5049273;28;20496;-49
2023/01/23 16:42:15;;;;;;;6.30;4.20;;;;;;;;;;5045684;28;20031;-49
2023/01/23 16:44:41;;;;;;;6.18;3.47;;;;;;;;;;5046686;28;20507;-47
2023/01/23 16:47:07;;;;;;;5.78;3.90;;;;;;;;;;5045563;28;20029;-47
2023/01/23 16:49:34;;;;;;;5.20;3.25;;;;;;;;;;5049299;28;20520;-49
2023/01/23 16:52:00;;;;;;;5.78;3.67;;;;;;;;;;5045236;28;20112;-47
2023/01/23 16:54:26;;;;;;;4.53;3.17;;;;;;;;;;5051453;28;20037;-50
2023/01/23 16:56:55;;;;;;;4.50;3.00;;;;;;;;;;5050018;28;20029;-51
2023/01/23 16:59:42;;;;;;;4.70;3.25;;;;;;;;;;5063292;28;20063;-47
2023/01/23 17:02:34;;;;;;;4.45;3.10;;;;;;;;;;5056384;28;20035;-50
2023/01/23 17:05:00;;;;;;;4.07;2.95;;;;;;;;;;5046016;28;20449;-48
2023/01/23 17:07:26;;;;;;;4.47;3.10;;;;;;;;;;5049310;28;20141;-52
2023/01/23 17:09:52;;;;;;;5.82;3.97;;;;;;;;;;5045497;28;20033;-51
2023/01/23 17:12:21;;;;;;;4.75;3.47;;;;;;;;;;5044623;28;20039;-51
2023/01/23 17:14:48;;;;;;;5.25;3.30;;;;;;;;;;5046332;28;20064;-49
2023/01/23 17:17:16;;;;;;;4.32;2.95;;;;;;;;;;5046266;28;20573;-48
2023/01/23 17:19:43;;;;;;;3.75;3.00;;;;;;;;;;5057279;28;20572;-50
2023/01/23 17:22:17;;;;;;;4.78;3.25;;;;;;;;;;5045990;28;20407;-51
2023/01/23 17:24:43;;;;;;;4.07;2.97;;;;;;;;;;5055650;28;20028;-49
2023/01/23 17:27:10;;;;;;;3.97;2.83;;;;;;;;;;5055726;28;20549;-50
2023/01/23 17:29:36;;;;;;;5.15;3.15;;;;;;;;;;5046107;28;20610;-48
2023/01/23 17:32:03;;;;;;;6.13;3.40;;;;;;;;;;5045691;28;20108;-49
2023/01/23 17:34:34;;;;;;;5.00;3.20;;;;;;;;;;5046014;28;20399;-49
2023/01/23 17:37:00;;;;;;;5.22;3.47;;;;;;;;;;5045626;28;20032;-49
2023/01/23 17:39:26;;;;;;;4.88;3.45;;;;;;;;;;5046486;28;20021;-50
2023/01/23 17:41:52;;;;;;;5.72;3.67;;;;;;;;;;5045291;28;20124;-48
2023/01/23 17:44:18;;;;;;;4.95;3.40;;;;;;;;;;5047485;28;20483;-50
2023/01/23 17:46:45;;;;;;;5.47;3.70;;;;;;;;;;5049195;28;20056;-51
2023/01/23 17:49:24;;;;;;;5.50;3.55;;;;;;;;;;5062228;28;20487;-50
2023/01/23 17:51:50;;;;;;;6.25;3.35;;;;;;;;;;5048173;28;20031;-50
2023/01/23 17:54:18;;;;;;;8.30;4.28;;;;;;;;;;5046009;28;20444;-51
2023/01/23 17:56:44;;;;;;;5.57;3.47;;;;;;;;;;5046558;28;20025;-50
2023/01/23 17:59:10;;;;;;;5.65;3.67;;;;;;;;;;5046691;28;20021;-48
2023/01/23 18:01:36;;;;;;;6.78;4.15;;;;;;;;;;5046958;28;20021;-50
2023/01/23 18:04:02;;;;;;;6.55;4.40;;;;;;;;;;5046853;28;20037;-52
2023/01/23 18:06:29;;;;;;;5.93;3.45;;;;;;;;;;5046616;28;20047;-50
2023/01/23 18:08:55;;;;;;;6.57;4.68;;;;;;;;;;5047765;28;20059;-50
2023/01/23 18:11:22;;;;;;;6.68;3.95;;;;;;;;;;5049587;28;20025;-47
2023/01/23 18:14:04;;;;;;;5.82;4.00;;;;;;;;;;5052819;28;20040;-48
2023/01/23 18:16:41;;;;;;;5.05;3.50;;;;;;;;;;5052075;28;20032;-51
2023/01/23 18:19:16;;;;;;;5.65;3.90;;;;;;;;;;5046863;28;20056;-53
2023/01/23 18:21:44;;;;;;;5.82;3.88;;;;;;;;;;5036593;28;20334;-50
2023/01/23 18:24:18;;;;;;;5.78;3.72;;;;;;;;;;5045296;28;20021;-48
2023/01/23 18:26:48;;;;;;;8.13;4.53;;;;;;;;;;5046110;28;20276;-51
2023/01/23 18:29:28;;;;;;;7.18;4.68;;;;;;;;;;5041182;28;20036;-51
2023/01/23 18:32:03;;;;;;;6.88;4.28;;;;;;;;;;5048813;28;20064;-54
2023/01/23 18:34:39;;;;;;;5.90;4.10;;;;;;;;;;5047978;28;20450;-52
2023/01/23 18:37:08;;;;;;;6.60;4.10;;;;;;;;;;5057139;28;20033;-53
2023/01/23 18:40:06;;;;;;;6.55;4.00;;;;;;;;;;5045593;28;20087;-50
2023/01/23 18:42:54;;;;;;;7.63;4.30;;;;;;;;;;5014182;28;20451;-53
2023/01/23 18:45:20;;;;;;;6.03;3.97;;;;;;;;;;5046070;28;20083;-49
2023/01/23 18:47:46;;;;;;;7.03;4.65;;;;;;;;;;5045532;28;20025;-50
2023/01/23 18:50:17;;;;;;;7.20;4.10;;;;;;;;;;5044256;28;20052;-49
2023/01/23 18:52:52;;;;;;;6.82;4.18;;;;;;;;;;5045388;28;20029;-50
2023/01/23 18:55:21;;;;;;;6.50;4.13;;;;;;;;;;5045260;28;20421;-48
2023/01/23 18:58:07;;;;;;;5.93;3.90;;;;;;;;;;5044134;28;20029;-50
2023/01/23 19:00:35;;;;;;;6.47;4.20;;;;;;;;;;5045734;28;20031;-48
2023/01/23 19:03:09;;;;;;;6.15;4.20;;;;;;;;;;5027785;28;20022;-52
2023/01/23 19:05:35;;;;;;;6.32;4.15;;;;;;;;;;5040359;28;20029;-51
2023/01/23 19:08:01;;;;;;;6.78;4.40;;;;;;;;;;5046603;28;20021;-49
2023/01/23 19:10:29;;;;;;;6.18;4.07;;;;;;;;;;5045148;28;20029;-50
2023/01/23 19:12:58;;;;;;;7.30;4.15;;;;;;;;;;5047283;28;20032;-50
2023/01/23 19:15:28;;;;;;;7.38;4.30;;;;;;;;;;5046868;28;20029;-49
2023/01/23 19:18:01;;;;;;;6.95;4.88;;;;;;;;;;5047747;28;20590;-51
2023/01/23 19:20:47;;;;;;;6.75;4.60;;;;;;;;;;5045994;28;20713;-49
2023/01/23 19:23:39;;;;;;;6.57;4.35;;;;;;;;;;5047031;28;20033;-49
2023/01/23 19:26:05;;;;;;;7.53;4.78;;;;;;;;;;5044477;28;20033;-52
2023/01/23 19:28:31;;;;;;;7.13;4.55;;;;;;;;;;5044034;28;20431;-50
2023/01/23 19:30:57;;;;;;;7.60;5.30;;;;;;;;;;5045481;28;20025;-52
2023/01/23 19:33:23;;;;;;;8.50;5.32;;;;;;;;;;5046988;28;20090;-49
2023/01/23 19:35:50;;;;;;;7.43;5.10;;;;;;;;;;5044010;28;20337;-51
2023/01/23 19:38:16;;;;;;;6.88;5.00;;;;;;;;;;5045336;28;20048;-48
2023/01/23 19:40:43;;;;;;;8.48;5.35;;;;;;;;;;5043728;28;20071;-48
2023/01/23 19:43:15;;;;;;;9.32;5.05;;;;;;;;;;5044566;28;20083;-50
2023/01/23 19:45:42;;;;;;;8.27;5.20;;;;;;;;;;5044710;28;20543;-50
2023/01/23 19:48:08;;;;;;;6.95;4.55;;;;;;;;;;5044271;28;20128;-49
2023/01/23 19:50:34;;;;;;;7.40;4.47;;;;;;;;;;5044208;28;20017;-51
2023/01/23 19:53:00;;;;;;;9.98;5.70;;;;;;;;;;5044415;28;20416;-49
2023/01/23 19:55:28;;;;;;;10.35;6.03;;;;;;;;;;5043864;28;20029;-49
2023/01/23 19:57:57;;;;;;;8.68;4.85;;;;;;;;;;5043787;28;20385;-49
2023/01/23 20:00:24;;;;;;;9.32;5.90;;;;;;;;;;5056210;28;20037;-51
2023/01/23 20:02:50;;;;;;;8.00;5.35;;;;;;;;;;5042509;28;20037;-48
2023/01/23 20:05:16;;;;;;;10.60;6.20;;;;;;;;;;5042375;28;20041;-48
2023/01/23 20:07:42;;;;;;;12.45;6.53;;;;;;;;;;5044677;28;20404;-49
2023/01/23 20:10:09;;;;;;;14.63;7.85;;;;;;;;;;5042837;28;20043;-47
2023/01/23 20:12:39;;;;;;;19.83;9.32;;;;;;;;;;5044338;28;20033;-48
2023/01/23 20:15:06;;;;;;;19.58;9.63;;;;;;;;;;5043706;28;20040;-50
2023/01/23 20:17:32;;;;;;;19.00;8.80;;;;;;;;;;5043687;28;20028;-50
2023/01/23 20:19:58;;;;;;;18.60;9.30;;;;;;;;;;5047424;28;20589;-49
2023/01/23 20:22:24;;;;;;;19.55;8.90;;;;;;;;;;5044022;28;20111;-49